PWSweather.com
Personal Weather Stations
Station Observations
PENICUIKWS
PenicuikGB

PenicuikGB

Lat: 55.830932, Lon: -3.224533000000065

Elevation: 166

Station Type: Fine Offset

http://weather.penicuik.org

High Low Average
Temperature 67.5°F19.7°C 36.3°F2.4°C 47.7°F8.7°C
Dew Point 46.2°F7.9°C 34.6°F1.4°C 38.8°F3.8°C
Winds 5.5 mph 8.9 kmh Calm Calm 1.0 mph SW1.6 kmh SW
Wind Gusts 7.6 mph12.2 kmh -- 3.0 mph4.8 kmh
Humidity 99% 37% 74%
Pressure 30.55 in1034.5 mb 30.43 in1030.5 mb -
Precipitation 0.00 in0.0 mm - -
Hour Temp Dew Point Humidity Winds Wind Gusts Pressure Precip Precip Rate Daily Precip Total
12:00 AM 39.2°F4.0°C 37.6°F3.1°C 94% 0.5 mph NW0.8 kmh NW 2.2 mph3.5 kmh 30.44 in1030.8 mb 0.00 in0.0 mm 0.00 in0.0 mm 0.00 in0.0 mm
12:15 AM 39.4°F4.1°C 37.8°F3.2°C 94% 0.9 mph SW1.4 kmh SW 3.8 mph6.1 kmh 30.44 in1030.8 mb 0.00 in0.0 mm 0.00 in0.0 mm 0.00 in0.0 mm
12:30 AM 39.2°F4.0°C 37.6°F3.1°C 94% 0.5 mph SW0.8 kmh SW 1.6 mph2.6 kmh 30.43 in1030.5 mb 0.00 in0.0 mm 0.00 in0.0 mm 0.00 in0.0 mm
12:45 AM 39.0°F3.9°C 38.0°F3.3°C 96% 0.9 mph SW1.4 kmh SW 1.6 mph2.6 kmh 30.43 in1030.5 mb 0.00 in0.0 mm 0.00 in0.0 mm 0.00 in0.0 mm
01:00 AM 38.1°F3.4°C 37.1°F2.8°C 96% 0.3 mph SW0.5 kmh SW 1.6 mph2.6 kmh 30.45 in1031.2 mb 0.00 in0.0 mm 0.00 in0.0 mm 0.00 in0.0 mm
01:15 AM 37.9°F3.3°C 36.9°F2.7°C 96% 0.4 mph W0.6 kmh W 1.6 mph2.6 kmh 30.45 in1031.2 mb 0.00 in0.0 mm 0.00 in0.0 mm 0.00 in0.0 mm
01:30 AM 37.2°F2.9°C 35.1°F1.7°C 92% 0.3 mph WNW0.5 kmh WNW 1.6 mph2.6 kmh 30.45 in1031.2 mb 0.00 in0.0 mm 0.00 in0.0 mm 0.00 in0.0 mm
01:45 AM 37.0°F2.8°C 34.9°F1.6°C 92% 0.1 mph SW0.2 kmh SW 0.7 mph1.1 kmh 30.45 in1031.2 mb 0.00 in0.0 mm 0.00 in0.0 mm 0.00 in0.0 mm
02:00 AM 37.0°F2.8°C 34.9°F1.6°C 92% 0.9 mph SW1.4 kmh SW 2.2 mph3.5 kmh 30.46 in1031.5 mb 0.00 in0.0 mm 0.00 in0.0 mm 0.00 in0.0 mm
02:15 AM 37.0°F2.8°C 34.9°F1.6°C 92% 0.5 mph SW0.8 kmh SW 3.1 mph5.0 kmh 30.45 in1031.2 mb 0.00 in0.0 mm 0.00 in0.0 mm 0.00 in0.0 mm
02:30 AM 36.7°F2.6°C 34.6°F1.4°C 92% 0.6 mph NW1.0 kmh NW 1.6 mph2.6 kmh 30.45 in1031.2 mb 0.00 in0.0 mm 0.00 in0.0 mm 0.00 in0.0 mm
02:45 AM 37.2°F2.9°C 35.1°F1.7°C 92% 0.3 mph NNW0.5 kmh NNW 1.6 mph2.6 kmh 30.46 in1031.5 mb 0.00 in0.0 mm 0.00 in0.0 mm 0.00 in0.0 mm
03:00 AM 37.2°F2.9°C 35.4°F1.9°C 93% 0.5 mph W0.8 kmh W 1.6 mph2.6 kmh 30.45 in1031.2 mb 0.00 in0.0 mm 0.00 in0.0 mm 0.00 in0.0 mm
03:01 AM 37.2°F2.9°C 35.4°F1.9°C 93% 0.4 mph W0.6 kmh W 1.6 mph2.6 kmh 30.45 in1031.2 mb 0.00 in0.0 mm 0.00 in0.0 mm 0.00 in0.0 mm
03:15 AM 37.2°F2.9°C 35.4°F1.9°C 93% 0.4 mph WNW0.6 kmh WNW 2.2 mph3.5 kmh 30.46 in1031.5 mb 0.00 in0.0 mm 0.00 in0.0 mm 0.00 in0.0 mm
03:30 AM 37.2°F2.9°C 35.4°F1.9°C 93% 0.3 mph NW0.5 kmh NW 1.0 mph1.6 kmh 30.46 in1031.5 mb 0.00 in0.0 mm 0.00 in0.0 mm 0.00 in0.0 mm
03:31 AM 37.2°F2.9°C 35.4°F1.9°C 93% 0.3 mph NW0.5 kmh NW 1.0 mph1.6 kmh 30.46 in1031.5 mb 0.00 in0.0 mm 0.00 in0.0 mm 0.00 in0.0 mm
03:45 AM 37.2°F2.9°C 35.4°F1.9°C 93% 0.3 mph N0.5 kmh N 0.7 mph1.1 kmh 30.47 in1031.8 mb 0.00 in0.0 mm 0.00 in0.0 mm 0.00 in0.0 mm
04:00 AM 36.9°F2.7°C 35.0°F1.7°C 93% 0.6 mph NNW1.0 kmh NNW 1.6 mph2.6 kmh 30.47 in1031.8 mb 0.00 in0.0 mm 0.00 in0.0 mm 0.00 in0.0 mm
04:15 AM 37.0°F2.8°C 35.2°F1.8°C 93% 1.8 mph NW2.9 kmh NW 4.5 mph7.2 kmh 30.48 in1032.2 mb 0.00 in0.0 mm 0.00 in0.0 mm 0.00 in0.0 mm
04:30 AM 36.9°F2.7°C 35.0°F1.7°C 93% 0.5 mph NNW0.8 kmh NNW 2.2 mph3.5 kmh 30.49 in1032.5 mb 0.00 in0.0 mm 0.00 in0.0 mm 0.00 in0.0 mm
05:00 AM 36.5°F2.5°C 34.7°F1.5°C 93% 0.2 mph NW0.3 kmh NW 1.6 mph2.6 kmh 30.49 in1032.5 mb 0.00 in0.0 mm 0.00 in0.0 mm 0.00 in0.0 mm
05:15 AM 36.5°F2.5°C 34.7°F1.5°C 93% 0.9 mph SW1.4 kmh SW 2.2 mph3.5 kmh 30.50 in1032.8 mb 0.00 in0.0 mm 0.00 in0.0 mm 0.00 in0.0 mm
05:30 AM 36.5°F2.5°C 34.7°F1.5°C 93% 0.9 mph NE1.4 kmh NE 3.1 mph5.0 kmh 30.50 in1032.8 mb 0.00 in0.0 mm 0.00 in0.0 mm 0.00 in0.0 mm
05:45 AM 36.3°F2.4°C 34.8°F1.6°C 94% Calm Calm -- 30.50 in1032.8 mb 0.00 in0.0 mm 0.00 in0.0 mm 0.00 in0.0 mm
06:00 AM 36.7°F2.6°C 35.1°F1.7°C 94% 0.7 mph NW1.1 kmh NW 2.2 mph3.5 kmh 30.50 in1032.8 mb 0.00 in0.0 mm 0.00 in0.0 mm 0.00 in0.0 mm
06:15 AM 37.0°F2.8°C 35.5°F1.9°C 94% 2.6 mph S4.2 kmh S 5.4 mph8.7 kmh 30.50 in1032.8 mb 0.00 in0.0 mm 0.00 in0.0 mm 0.00 in0.0 mm
06:30 AM 37.0°F2.8°C 35.5°F1.9°C 94% 2.5 mph WSW4.0 kmh WSW 7.6 mph12.2 kmh 30.50 in1032.8 mb 0.00 in0.0 mm 0.00 in0.0 mm 0.00 in0.0 mm
06:45 AM 37.0°F2.8°C 35.5°F1.9°C 94% 1.5 mph N2.4 kmh N 3.1 mph5.0 kmh 30.52 in1033.5 mb 0.00 in0.0 mm 0.00 in0.0 mm 0.00 in0.0 mm
07:00 AM 37.0°F2.8°C 35.5°F1.9°C 94% 2.1 mph WSW3.4 kmh WSW 4.5 mph7.2 kmh 30.52 in1033.5 mb 0.00 in0.0 mm 0.00 in0.0 mm 0.00 in0.0 mm
07:15 AM 38.5°F3.6°C 38.2°F3.4°C 99% 3.5 mph S5.6 kmh S 6.9 mph11.1 kmh 30.52 in1033.5 mb 0.00 in0.0 mm 0.00 in0.0 mm 0.00 in0.0 mm
07:30 AM 39.4°F4.1°C 38.9°F3.8°C 98% 3.5 mph SSE5.6 kmh SSE 4.5 mph7.2 kmh 30.52 in1033.5 mb 0.00 in0.0 mm 0.00 in0.0 mm 0.00 in0.0 mm
07:45 AM 40.5°F4.7°C 40.2°F4.6°C 99% 3.9 mph S6.3 kmh S 6.9 mph11.1 kmh 30.53 in1033.9 mb 0.00 in0.0 mm 0.00 in0.0 mm 0.00 in0.0 mm
08:00 AM 41.9°F5.5°C 41.4°F5.2°C 98% 3.4 mph S5.5 kmh S 4.5 mph7.2 kmh 30.54 in1034.2 mb 0.00 in0.0 mm 0.00 in0.0 mm 0.00 in0.0 mm
08:15 AM 47.8°F8.8°C 46.2°F7.9°C 94% 4.1 mph S6.6 kmh S 5.4 mph8.7 kmh 30.53 in1033.9 mb 0.00 in0.0 mm 0.00 in0.0 mm 0.00 in0.0 mm
08:45 AM 51.8°F11.0°C 40.8°F4.9°C 66% 5.5 mph S8.9 kmh S 7.6 mph12.2 kmh 30.54 in1034.2 mb 0.00 in0.0 mm 0.00 in0.0 mm 0.00 in0.0 mm
09:00 AM 56.3°F13.5°C 44.3°F6.8°C 64% 2.4 mph SW3.9 kmh SW 4.5 mph7.2 kmh 30.54 in1034.2 mb 0.00 in0.0 mm 0.00 in0.0 mm 0.00 in0.0 mm
09:15 AM 55.6°F13.1°C 41.5°F5.3°C 59% 5.0 mph S8.0 kmh S 6.9 mph11.1 kmh 30.54 in1034.2 mb 0.00 in0.0 mm 0.00 in0.0 mm 0.00 in0.0 mm
09:30 AM 55.2°F12.9°C 42.4°F5.8°C 62% 5.3 mph SSE8.5 kmh SSE 7.6 mph12.2 kmh 30.54 in1034.2 mb 0.00 in0.0 mm 0.00 in0.0 mm 0.00 in0.0 mm
09:45 AM 55.8°F13.2°C 42.9°F6.1°C 62% 5.2 mph S8.4 kmh S 7.6 mph12.2 kmh 30.54 in1034.2 mb 0.00 in0.0 mm 0.00 in0.0 mm 0.00 in0.0 mm
10:00 AM 58.5°F14.7°C 44.2°F6.8°C 59% 4.4 mph S7.1 kmh S 6.0 mph9.7 kmh 30.54 in1034.2 mb 0.00 in0.0 mm 0.00 in0.0 mm 0.00 in0.0 mm
10:15 AM 63.0°F17.2°C 42.4°F5.8°C 47% 1.8 mph ENE2.9 kmh ENE 3.8 mph6.1 kmh 30.55 in1034.5 mb 0.00 in0.0 mm 0.00 in0.0 mm 0.00 in0.0 mm
10:30 AM 67.5°F19.7°C 43.6°F6.4°C 42% 1.8 mph NE2.9 kmh NE 3.1 mph5.0 kmh 30.55 in1034.5 mb 0.00 in0.0 mm 0.00 in0.0 mm 0.00 in0.0 mm
10:45 AM 64.2°F17.9°C 38.1°F3.4°C 38% 2.5 mph SSW4.0 kmh SSW 3.8 mph6.1 kmh 30.54 in1034.2 mb 0.00 in0.0 mm 0.00 in0.0 mm 0.00 in0.0 mm
11:00 AM 66.4°F19.1°C 40.7°F4.8°C 39% 1.5 mph ENE2.4 kmh ENE 2.2 mph3.5 kmh 30.54 in1034.2 mb 0.00 in0.0 mm 0.00 in0.0 mm 0.00 in0.0 mm
11:15 AM 65.5°F18.6°C 38.5°F3.6°C 37% 2.6 mph SSW4.2 kmh SSW 3.1 mph5.0 kmh 30.55 in1034.5 mb 0.00 in0.0 mm 0.00 in0.0 mm 0.00 in0.0 mm
11:30 AM 63.0°F17.2°C 38.9°F3.8°C 41% 1.7 mph N2.7 kmh N 3.1 mph5.0 kmh 30.54 in1034.2 mb 0.00 in0.0 mm 0.00 in0.0 mm 0.00 in0.0 mm
11:45 AM 57.4°F14.1°C 39.4°F4.1°C 51% 1.6 mph N2.6 kmh N 2.2 mph3.5 kmh 30.54 in1034.2 mb 0.00 in0.0 mm 0.00 in0.0 mm 0.00 in0.0 mm
12:15 PM 62.4°F16.9°C 37.8°F3.2°C 40% 2.1 mph SW3.4 kmh SW 3.1 mph5.0 kmh 30.54 in1034.2 mb 0.00 in0.0 mm 0.00 in0.0 mm 0.00 in0.0 mm
12:30 PM 59.9°F15.5°C 38.5°F3.6°C 45% 1.9 mph NNE3.1 kmh NNE 3.8 mph6.1 kmh 30.53 in1033.9 mb 0.00 in0.0 mm 0.00 in0.0 mm 0.00 in0.0 mm
12:31 PM 59.5°F15.3°C 38.8°F3.8°C 46% 1.7 mph SSE2.7 kmh SSE 3.8 mph6.1 kmh 30.54 in1034.2 mb 0.00 in0.0 mm 0.00 in0.0 mm 0.00 in0.0 mm
12:45 PM 58.6°F14.8°C 40.6°F4.8°C 51% 1.3 mph S2.1 kmh S 2.2 mph3.5 kmh 30.53 in1033.9 mb 0.00 in0.0 mm 0.00 in0.0 mm 0.00 in0.0 mm
12:46 PM 58.6°F14.8°C 41.1°F5.1°C 52% 1.3 mph S2.1 kmh S 3.1 mph5.0 kmh 30.53 in1033.9 mb 0.00 in0.0 mm 0.00 in0.0 mm 0.00 in0.0 mm
01:00 PM 57.2°F14.0°C 40.7°F4.8°C 54% 1.6 mph WSW2.6 kmh WSW 2.2 mph3.5 kmh 30.52 in1033.5 mb 0.00 in0.0 mm 0.00 in0.0 mm 0.00 in0.0 mm
01:01 PM 57.2°F14.0°C 40.7°F4.8°C 54% 1.5 mph SW2.4 kmh SW 2.2 mph3.5 kmh 30.52 in1033.5 mb 0.00 in0.0 mm 0.00 in0.0 mm 0.00 in0.0 mm
01:15 PM 57.0°F13.9°C 40.5°F4.7°C 54% 1.2 mph SW1.9 kmh SW 2.2 mph3.5 kmh 30.53 in1033.9 mb 0.00 in0.0 mm 0.00 in0.0 mm 0.00 in0.0 mm
01:30 PM 57.4°F14.1°C 40.9°F4.9°C 54% 1.9 mph N3.1 kmh N 3.1 mph5.0 kmh 30.52 in1033.5 mb 0.00 in0.0 mm 0.00 in0.0 mm 0.00 in0.0 mm
01:45 PM 58.5°F14.7°C 40.9°F4.9°C 52% 1.9 mph NW3.1 kmh NW 3.8 mph6.1 kmh 30.52 in1033.5 mb 0.00 in0.0 mm 0.00 in0.0 mm 0.00 in0.0 mm
02:00 PM 61.0°F16.1°C 40.6°F4.8°C 47% 1.9 mph ESE3.1 kmh ESE 3.1 mph5.0 kmh 30.53 in1033.9 mb 0.00 in0.0 mm 0.00 in0.0 mm 0.00 in0.0 mm
02:15 PM 58.6°F14.8°C 40.1°F4.5°C 50% 2.1 mph SW3.4 kmh SW 3.1 mph5.0 kmh 30.52 in1033.5 mb 0.00 in0.0 mm 0.00 in0.0 mm 0.00 in0.0 mm
02:30 PM 56.7°F13.7°C 39.7°F4.3°C 53% 1.5 mph NE2.4 kmh NE 3.1 mph5.0 kmh 30.53 in1033.9 mb 0.00 in0.0 mm 0.00 in0.0 mm 0.00 in0.0 mm
02:45 PM 55.9°F13.3°C 39.5°F4.2°C 54% 2.2 mph S3.5 kmh S 3.1 mph5.0 kmh 30.51 in1033.2 mb 0.00 in0.0 mm 0.00 in0.0 mm 0.00 in0.0 mm
03:00 PM 55.2°F12.9°C 39.3°F4.1°C 55% 2.0 mph SSE3.2 kmh SSE 3.8 mph6.1 kmh 30.50 in1032.8 mb 0.00 in0.0 mm 0.00 in0.0 mm 0.00 in0.0 mm
03:15 PM 55.0°F12.8°C 39.2°F4.0°C 55% 2.5 mph SSW4.0 kmh SSW 4.5 mph7.2 kmh 30.51 in1033.2 mb 0.00 in0.0 mm 0.00 in0.0 mm 0.00 in0.0 mm
03:30 PM 55.0°F12.8°C 38.7°F3.7°C 54% 2.2 mph SSW3.5 kmh SSW 3.1 mph5.0 kmh 30.50 in1032.8 mb 0.00 in0.0 mm 0.00 in0.0 mm 0.00 in0.0 mm
03:45 PM 54.9°F12.7°C 40.4°F4.7°C 58% 1.4 mph SW2.3 kmh SW 2.2 mph3.5 kmh 30.50 in1032.8 mb 0.00 in0.0 mm 0.00 in0.0 mm 0.00 in0.0 mm
04:00 PM 54.9°F12.7°C 40.4°F4.7°C 58% 1.1 mph NW1.8 kmh NW 1.6 mph2.6 kmh 30.50 in1032.8 mb 0.00 in0.0 mm 0.00 in0.0 mm 0.00 in0.0 mm
04:15 PM 54.0°F12.2°C 40.0°F4.4°C 59% 1.8 mph SW2.9 kmh SW 2.2 mph3.5 kmh 30.49 in1032.5 mb 0.00 in0.0 mm 0.00 in0.0 mm 0.00 in0.0 mm
04:30 PM 52.5°F11.4°C 39.9°F4.4°C 62% 2.0 mph SSW3.2 kmh SSW 3.1 mph5.0 kmh 30.49 in1032.5 mb 0.00 in0.0 mm 0.00 in0.0 mm 0.00 in0.0 mm
04:45 PM 51.8°F11.0°C 40.4°F4.7°C 65% 1.3 mph W2.1 kmh W 3.1 mph5.0 kmh 30.49 in1032.5 mb 0.00 in0.0 mm 0.00 in0.0 mm 0.00 in0.0 mm
05:00 PM 52.2°F11.2°C 40.8°F4.9°C 65% 2.1 mph S3.4 kmh S 3.8 mph6.1 kmh 30.49 in1032.5 mb 0.00 in0.0 mm 0.00 in0.0 mm 0.00 in0.0 mm
05:15 PM 51.8°F11.0°C 40.4°F4.7°C 65% 1.8 mph SW2.9 kmh SW 3.1 mph5.0 kmh 30.48 in1032.2 mb 0.00 in0.0 mm 0.00 in0.0 mm 0.00 in0.0 mm
05:30 PM 51.3°F10.7°C 40.3°F4.6°C 66% 1.4 mph SSE2.3 kmh SSE 3.1 mph5.0 kmh 30.49 in1032.5 mb 0.00 in0.0 mm 0.00 in0.0 mm 0.00 in0.0 mm
05:45 PM 50.4°F10.2°C 40.2°F4.6°C 68% 0.8 mph N1.3 kmh N 1.6 mph2.6 kmh 30.49 in1032.5 mb 0.00 in0.0 mm 0.00 in0.0 mm 0.00 in0.0 mm
06:00 PM 50.4°F10.2°C 41.0°F5.0°C 70% 0.4 mph SSW0.6 kmh SSW 0.7 mph1.1 kmh 30.48 in1032.2 mb 0.00 in0.0 mm 0.00 in0.0 mm 0.00 in0.0 mm
06:30 PM 50.0°F10.0°C 41.3°F5.2°C 72% 1.0 mph S1.6 kmh S 2.2 mph3.5 kmh 30.48 in1032.2 mb 0.00 in0.0 mm 0.00 in0.0 mm 0.00 in0.0 mm
06:45 PM 49.6°F9.8°C 41.7°F5.4°C 74% 0.1 mph S0.2 kmh S 0.7 mph1.1 kmh 30.48 in1032.2 mb 0.00 in0.0 mm 0.00 in0.0 mm 0.00 in0.0 mm
07:00 PM 49.3°F9.6°C 42.0°F5.6°C 76% 1.9 mph SW3.1 kmh SW 5.4 mph8.7 kmh 30.48 in1032.2 mb 0.00 in0.0 mm 0.00 in0.0 mm 0.00 in0.0 mm
07:30 PM 48.6°F9.2°C 41.0°F5.0°C 75% 1.0 mph WSW1.6 kmh WSW 1.6 mph2.6 kmh 30.48 in1032.2 mb 0.00 in0.0 mm 0.00 in0.0 mm 0.00 in0.0 mm
07:45 PM 48.4°F9.1°C 40.8°F4.9°C 75% 0.7 mph SW1.1 kmh SW 3.1 mph5.0 kmh 30.48 in1032.2 mb 0.00 in0.0 mm 0.00 in0.0 mm 0.00 in0.0 mm
08:00 PM 48.4°F9.1°C 40.8°F4.9°C 75% 1.2 mph WNW1.9 kmh WNW 2.2 mph3.5 kmh 30.48 in1032.2 mb 0.00 in0.0 mm 0.00 in0.0 mm 0.00 in0.0 mm
08:15 PM 47.7°F8.7°C 40.5°F4.7°C 76% 0.6 mph SW1.0 kmh SW 1.6 mph2.6 kmh 30.48 in1032.2 mb 0.00 in0.0 mm 0.00 in0.0 mm 0.00 in0.0 mm
08:30 PM 47.8°F8.8°C 40.3°F4.6°C 75% 1.4 mph S2.3 kmh S 3.1 mph5.0 kmh 30.48 in1032.2 mb 0.00 in0.0 mm 0.00 in0.0 mm 0.00 in0.0 mm
08:45 PM 46.9°F8.3°C 39.8°F4.3°C 76% 0.4 mph E0.6 kmh E 2.2 mph3.5 kmh 30.48 in1032.2 mb 0.00 in0.0 mm 0.00 in0.0 mm 0.00 in0.0 mm
09:00 PM 45.9°F7.7°C 39.4°F4.1°C 78% 0.6 mph WSW1.0 kmh WSW 0.7 mph1.1 kmh 30.48 in1032.2 mb 0.00 in0.0 mm 0.00 in0.0 mm 0.00 in0.0 mm
09:15 PM 45.5°F7.5°C 39.0°F3.9°C 78% 0.2 mph SE0.3 kmh SE 1.6 mph2.6 kmh 30.48 in1032.2 mb 0.00 in0.0 mm 0.00 in0.0 mm 0.00 in0.0 mm
09:30 PM 45.7°F7.6°C 39.5°F4.2°C 79% 0.6 mph WNW1.0 kmh WNW 2.2 mph3.5 kmh 30.47 in1031.8 mb 0.00 in0.0 mm 0.00 in0.0 mm 0.00 in0.0 mm
09:45 PM 45.0°F7.2°C 39.2°F4.0°C 80% 0.6 mph NNW1.0 kmh NNW 1.6 mph2.6 kmh 30.46 in1031.5 mb 0.00 in0.0 mm 0.00 in0.0 mm 0.00 in0.0 mm
10:00 PM 44.8°F7.1°C 39.3°F4.1°C 81% 0.6 mph WSW1.0 kmh WSW 1.6 mph2.6 kmh 30.46 in1031.5 mb 0.00 in0.0 mm 0.00 in0.0 mm 0.00 in0.0 mm
10:15 PM 45.0°F7.2°C 39.8°F4.3°C 82% 0.5 mph NW0.8 kmh NW 0.7 mph1.1 kmh 30.46 in1031.5 mb 0.00 in0.0 mm 0.00 in0.0 mm 0.00 in0.0 mm
10:30 PM 45.0°F7.2°C 40.1°F4.5°C 83% 0.6 mph W1.0 kmh W 1.6 mph2.6 kmh 30.46 in1031.5 mb 0.00 in0.0 mm 0.00 in0.0 mm 0.00 in0.0 mm
10:45 PM 45.1°F7.3°C 40.6°F4.8°C 84% 0.8 mph S1.3 kmh S 2.2 mph3.5 kmh 30.46 in1031.5 mb 0.00 in0.0 mm 0.00 in0.0 mm 0.00 in0.0 mm
11:00 PM 45.7°F7.6°C 40.8°F4.9°C 83% 1.3 mph NNW2.1 kmh NNW 3.1 mph5.0 kmh 30.44 in1030.8 mb 0.00 in0.0 mm 0.00 in0.0 mm 0.00 in0.0 mm
11:15 PM 45.5°F7.5°C 40.3°F4.6°C 82% 1.2 mph NW1.9 kmh NW 1.6 mph2.6 kmh 30.45 in1031.2 mb 0.00 in0.0 mm 0.00 in0.0 mm 0.00 in0.0 mm
11:30 PM 45.0°F7.2°C 39.8°F4.3°C 82% 0.8 mph SSW1.3 kmh SSW 1.6 mph2.6 kmh 30.44 in1030.8 mb 0.00 in0.0 mm 0.00 in0.0 mm 0.00 in0.0 mm
11:45 PM 45.1°F7.3°C 40.3°F4.6°C 83% 1.0 mph WSW1.6 kmh WSW 2.2 mph3.5 kmh 30.44 in1030.8 mb 0.00 in0.0 mm 0.00 in0.0 mm 0.00 in0.0 mm